Time;durP1;ratioP1;P1;durP2;ratioP2;P2;SDS_P1;SDS_P2;PMS_P1;PMS_P2;Temp;Humidity;BMP_temperature;BMP_pressure;BME280_temperature;BME280_humidity;BME280_pressure;Samples;Min_cycle;Max_cycle;Signal;HPM_P1;HPM_P2
2023/08/28 00:06:26;;;;;;;;;;;13.80;99.90;;;;;;6711584;88;20583;-76
2023/08/28 00:16:26;;;;;;;;;;;13.80;99.90;;;;;;6719537;88;20186;-76
2023/08/28 00:26:27;;;;;;;;;;;13.60;99.90;;;;;;6714104;88;20084;-76
2023/08/28 00:36:28;;;;;;;;;;;13.60;99.90;;;;;;6717910;88;20067;-76
2023/08/28 00:46:28;;;;;;;;;;;13.50;99.90;;;;;;6715066;88;20128;-76
2023/08/28 00:56:29;;;;;;;;;;;13.30;99.90;;;;;;6715774;88;20278;-76
2023/08/28 01:06:53;;;;;;;;;;;13.20;99.90;;;;;;6715340;88;20121;-76
2023/08/28 01:17:05;;;;;;;;;;;13.00;99.90;;;;;;6718627;88;20199;-76
2023/08/28 01:27:05;;;;;;;;;;;12.90;99.90;;;;;;6719299;88;20067;-76
2023/08/28 01:37:12;;;;;;;;;;;12.80;99.90;;;;;;6719002;88;20074;-76
2023/08/28 01:47:13;;;;;;;;;;;12.60;99.90;;;;;;6715989;88;20058;-76
2023/08/28 01:57:14;;;;;;;;;;;12.50;99.90;;;;;;6717931;88;20567;-76
2023/08/28 02:07:14;;;;;;;;;;;12.60;99.90;;;;;;6716558;88;20059;-76
2023/08/28 02:17:15;;;;;;;;;;;12.60;99.90;;;;;;6715412;88;20137;-76
2023/08/28 02:27:15;;;;;;;;;;;12.50;99.90;;;;;;6740536;77;20155;-77
2023/08/28 02:37:15;;;;;;;;;;;12.30;99.90;;;;;;6757243;87;20062;-77
2023/08/28 02:47:16;;;;;;;;;;;12.20;99.90;;;;;;6749185;87;20056;-77
2023/08/28 02:57:16;;;;;;;;;;;12.50;99.90;;;;;;6753163;87;20049;-77
2023/08/28 03:07:17;;;;;;;;;;;12.60;99.90;;;;;;6746887;88;20333;-77
2023/08/28 03:17:17;;;;;;;;;;;12.70;99.90;;;;;;6748364;87;20179;-76
2023/08/28 03:27:19;;;;;;;;;;;12.70;99.90;;;;;;6757772;87;20171;-76
2023/08/28 03:37:19;;;;;;;;;;;12.80;99.90;;;;;;6749943;87;20061;-77
2023/08/28 03:47:20;;;;;;;;;;;12.60;99.90;;;;;;6755117;87;20508;-77
2023/08/28 03:57:20;;;;;;;;;;;12.50;99.90;;;;;;6750731;87;20159;-77
2023/08/28 04:07:22;;;;;;;;;;;12.70;99.90;;;;;;6746373;88;20451;-75
2023/08/28 04:17:22;;;;;;;;;;;12.70;99.90;;;;;;6746676;87;20085;-77
2023/08/28 04:27:23;;;;;;;;;;;12.50;99.90;;;;;;6749321;87;20204;-77
2023/08/28 04:37:24;;;;;;;;;;;12.50;99.90;;;;;;6757775;87;20061;-77
2023/08/28 04:47:24;;;;;;;;;;;12.50;99.90;;;;;;6749355;87;20077;-76
2023/08/28 04:57:25;;;;;;;;;;;12.50;99.90;;;;;;6749487;87;20826;-77
2023/08/28 05:07:25;;;;;;;;;;;12.40;99.90;;;;;;6743226;87;20085;-77
2023/08/28 05:17:26;;;;;;;;;;;12.50;99.90;;;;;;6757703;87;20622;-76
2023/08/28 05:27:26;;;;;;;;;;;12.60;99.90;;;;;;6748238;88;20053;-77
2023/08/28 05:37:27;;;;;;;;;;;12.60;99.90;;;;;;6761112;87;20140;-77
2023/08/28 05:47:27;;;;;;;;;;;12.80;99.90;;;;;;6752774;87;20091;-74
2023/08/28 05:57:28;;;;;;;;;;;12.90;99.90;;;;;;6751009;87;20184;-78
2023/08/28 06:07:29;;;;;;;;;;;13.00;99.90;;;;;;6748346;87;20680;-75
2023/08/28 06:17:30;;;;;;;;;;;13.20;99.90;;;;;;6744542;87;20054;-75
2023/08/28 06:27:30;;;;;;;;;;;13.40;99.90;;;;;;6750728;87;20074;-76
2023/08/28 06:37:31;;;;;;;;;;;13.40;99.90;;;;;;6747079;87;20062;-76
2023/08/28 06:47:31;;;;;;;;;;;13.70;99.90;;;;;;6751013;88;20191;-75
2023/08/28 06:57:32;;;;;;;;;;;13.80;99.90;;;;;;6755009;88;20058;-77
2023/08/28 07:07:32;;;;;;;;;;;14.10;99.90;;;;;;6746148;88;20083;-77
2023/08/28 07:17:33;;;;;;;;;;;14.60;99.90;;;;;;6738680;87;20084;-77
2023/08/28 07:27:33;;;;;;;;;;;15.00;99.90;;;;;;6750952;87;20061;-77
2023/08/28 07:37:34;;;;;;;;;;;15.60;99.90;;;;;;6749319;87;20193;-76
2023/08/28 07:47:35;;;;;;;;;;;16.10;99.90;;;;;;6751686;87;20077;-76
2023/08/28 07:57:35;;;;;;;;;;;16.20;99.90;;;;;;6745818;87;20084;-76
2023/08/28 08:07:37;;;;;;;;;;;16.90;99.90;;;;;;6750118;87;20186;-76
2023/08/28 08:17:37;;;;;;;;;;;17.60;99.90;;;;;;6754640;87;20057;-76
2023/08/28 08:27:39;;;;;;;;;;;18.20;99.90;;;;;;6739865;76;20113;-76
2023/08/28 08:37:39;;;;;;;;;;;19.00;99.90;;;;;;6718755;88;20579;-76
2023/08/28 08:47:40;;;;;;;;;;;19.50;99.90;;;;;;6716470;88;20122;-76
2023/08/28 08:57:43;;;;;;;;;;;19.30;99.90;;;;;;6715968;88;20636;-76
2023/08/28 09:07:45;;;;;;;;;;;19.30;99.90;;;;;;6715345;88;20086;-76
2023/08/28 09:17:46;;;;;;;;;;;19.30;99.90;;;;;;6713279;88;20054;-76
2023/08/28 09:27:48;;;;;;;;;;;19.20;99.90;;;;;;6720103;88;20048;-76
2023/08/28 09:37:55;;;;;;;;;;;19.30;99.90;;;;;;6715587;88;20582;-76
2023/08/28 09:47:56;;;;;;;;;;;19.90;99.90;;;;;;6716417;88;20170;-76
2023/08/28 09:57:56;;;;;;;;;;;20.30;99.90;;;;;;6712546;88;20098;-76
2023/08/28 10:08:02;;;;;;;;;;;20.60;99.90;;;;;;6718721;88;20059;-76
2023/08/28 10:18:16;;;;;;;;;;;20.50;99.90;;;;;;6725135;88;20136;-77
2023/08/28 10:28:17;;;;;;;;;;;20.70;99.90;;;;;;6716328;88;20119;-76
2023/08/28 10:38:18;;;;;;;;;;;20.30;99.90;;;;;;6717575;88;20646;-75
2023/08/28 10:48:20;;;;;;;;;;;20.40;99.90;;;;;;6715523;88;20101;-76
2023/08/28 10:58:21;;;;;;;;;;;21.00;99.90;;;;;;6714725;88;20062;-77
2023/08/28 11:08:21;;;;;;;;;;;21.80;99.90;;;;;;6717028;88;20065;-76
2023/08/28 11:18:29;;;;;;;;;;;22.20;99.90;;;;;;6714076;88;20075;-76
2023/08/28 11:28:43;;;;;;;;;;;22.80;99.90;;;;;;6712914;88;20059;-76
2023/08/28 11:38:43;;;;;;;;;;;23.60;99.90;;;;;;6715553;88;20102;-76
2023/08/28 11:48:44;;;;;;;;;;;23.40;99.90;;;;;;6717431;88;20078;-76
2023/08/28 11:58:45;;;;;;;;;;;23.40;99.90;;;;;;6717937;88;20060;-75
2023/08/28 12:08:46;;;;;;;;;;;24.10;99.90;;;;;;6724319;88;20636;-75
2023/08/28 12:18:53;;;;;;;;;;;23.40;99.90;;;;;;6709956;88;20441;-76
2023/08/28 12:28:55;;;;;;;;;;;22.80;99.90;;;;;;6716094;88;20897;-77
2023/08/28 12:38:56;;;;;;;;;;;22.80;99.90;;;;;;6713998;88;20078;-76
2023/08/28 12:48:57;;;;;;;;;;;22.90;99.90;;;;;;6725020;88;20083;-77
2023/08/28 12:58:57;;;;;;;;;;;23.20;99.90;;;;;;6716405;88;20079;-77
2023/08/28 13:08:58;;;;;;;;;;;23.70;99.90;;;;;;6718109;88;20084;-77
2023/08/28 13:18:59;;;;;;;;;;;24.10;99.90;;;;;;6716018;88;20080;-77
2023/08/28 13:29:00;;;;;;;;;;;23.80;99.90;;;;;;6715995;88;20558;-76
2023/08/28 13:39:03;;;;;;;;;;;23.60;99.90;;;;;;6712539;88;20067;-76
2023/08/28 13:49:04;;;;;;;;;;;23.80;99.90;;;;;;6715764;88;20054;-77
2023/08/28 13:59:05;;;;;;;;;;;24.30;99.90;;;;;;6719531;88;20047;-78
2023/08/28 14:09:06;;;;;;;;;;;24.30;99.90;;;;;;6719355;88;20055;-77
2023/08/28 14:19:06;;;;;;;;;;;24.20;99.90;;;;;;6728185;88;20081;-76
2023/08/28 14:29:07;;;;;;;;;;;23.80;99.90;;;;;;6737749;77;20072;-77
2023/08/28 14:39:07;;;;;;;;;;;23.80;99.90;;;;;;6724517;88;20213;-78
2023/08/28 14:49:08;;;;;;;;;;;23.60;99.90;;;;;;6720080;88;20055;-78
2023/08/28 14:59:08;;;;;;;;;;;23.50;99.90;;;;;;6714045;88;20059;-78
2023/08/28 15:09:09;;;;;;;;;;;23.50;99.90;;;;;;6717248;88;20225;-77
2023/08/28 15:19:09;;;;;;;;;;;23.10;99.90;;;;;;6717682;88;20095;-77
2023/08/28 15:29:10;;;;;;;;;;;23.10;99.90;;;;;;6718855;88;20069;-78
2023/08/28 15:39:14;;;;;;;;;;;22.70;99.90;;;;;;6716028;88;20096;-78
2023/08/28 15:49:14;;;;;;;;;;;22.50;99.90;;;;;;6719523;88;20607;-77
2023/08/28 15:59:15;;;;;;;;;;;22.40;99.90;;;;;;6715545;88;20178;-77
2023/08/28 16:09:16;;;;;;;;;;;22.30;99.90;;;;;;6723849;88;20089;-77
2023/08/28 16:19:18;;;;;;;;;;;22.30;99.90;;;;;;6714234;88;20526;-77
2023/08/28 16:29:18;;;;;;;;;;;21.80;99.90;;;;;;6713459;88;20116;-77
2023/08/28 16:39:19;;;;;;;;;;;21.50;99.90;;;;;;6714352;88;20079;-77
2023/08/28 16:49:19;;;;;;;;;;;21.40;99.90;;;;;;6716438;88;20101;-77
2023/08/28 16:59:20;;;;;;;;;;;21.20;99.90;;;;;;6716924;88;20079;-75
2023/08/28 17:09:20;;;;;;;;;;;21.00;99.90;;;;;;6711373;88;20074;-76
2023/08/28 17:19:21;;;;;;;;;;;20.90;99.90;;;;;;6712452;88;20073;-77
2023/08/28 17:29:21;;;;;;;;;;;20.70;99.90;;;;;;6717261;88;20200;-76
2023/08/28 17:39:25;;;;;;;;;;;20.50;99.90;;;;;;6717645;88;20129;-74
2023/08/28 17:49:25;;;;;;;;;;;20.30;99.90;;;;;;6713964;88;20058;-74
2023/08/28 17:59:26;;;;;;;;;;;20.00;99.90;;;;;;6713777;88;20059;-75
2023/08/28 18:09:26;;;;;;;;;;;19.50;99.90;;;;;;6714013;88;20068;-75
2023/08/28 18:19:27;;;;;;;;;;;19.40;99.90;;;;;;6713415;88;20088;-76
2023/08/28 18:29:28;;;;;;;;;;;19.30;99.90;;;;;;6713461;88;20095;-75
2023/08/28 18:39:29;;;;;;;;;;;19.00;99.90;;;;;;6715835;88;20102;-76
2023/08/28 18:49:30;;;;;;;;;;;18.80;99.90;;;;;;6718493;88;20067;-76
2023/08/28 18:59:30;;;;;;;;;;;18.60;99.90;;;;;;6715783;88;20064;-75
2023/08/28 19:09:31;;;;;;;;;;;18.30;99.90;;;;;;6721249;88;20187;-74
2023/08/28 19:19:31;;;;;;;;;;;18.10;99.90;;;;;;6712785;88;20193;-76
2023/08/28 19:29:32;;;;;;;;;;;18.00;99.90;;;;;;6712332;88;20240;-76
2023/08/28 19:39:33;;;;;;;;;;;18.00;99.90;;;;;;6708598;88;20062;-74
2023/08/28 19:49:33;;;;;;;;;;;17.80;99.90;;;;;;6713431;88;20493;-77
2023/08/28 19:59:35;;;;;;;;;;;17.70;99.90;;;;;;6714258;88;20067;-76
2023/08/28 20:09:36;;;;;;;;;;;17.60;99.90;;;;;;6707815;88;20600;-76
2023/08/28 20:19:37;;;;;;;;;;;17.50;99.90;;;;;;6708258;88;20066;-76
2023/08/28 20:29:37;;;;;;;;;;;17.40;99.90;;;;;;6705933;88;20078;-75
2023/08/28 20:39:38;;;;;;;;;;;17.30;99.90;;;;;;6717544;88;20444;-75
2023/08/28 20:49:38;;;;;;;;;;;17.20;99.90;;;;;;6729487;88;20066;-75
2023/08/28 20:59:39;;;;;;;;;;;17.10;99.90;;;;;;6724489;88;20058;-74
2023/08/28 21:09:40;;;;;;;;;;;17.00;99.90;;;;;;6715722;88;20082;-75
2023/08/28 21:19:40;;;;;;;;;;;16.90;99.90;;;;;;6719809;88;20104;-74
2023/08/28 21:29:41;;;;;;;;;;;16.80;99.90;;;;;;6732465;88;20069;-74
2023/08/28 21:39:41;;;;;;;;;;;16.60;99.90;;;;;;6719963;88;20190;-74
2023/08/28 21:49:41;;;;;;;;;;;16.40;99.90;;;;;;6715277;88;20205;-74
2023/08/28 21:59:42;;;;;;;;;;;16.30;99.90;;;;;;6717199;88;20085;-74
2023/08/28 22:09:42;;;;;;;;;;;16.10;99.90;;;;;;6720778;88;20047;-75
2023/08/28 22:19:43;;;;;;;;;;;16.10;99.90;;;;;;6707514;88;20533;-75
2023/08/28 22:29:43;;;;;;;;;;;15.90;99.90;;;;;;6709689;88;20131;-74
2023/08/28 22:39:44;;;;;;;;;;;15.90;99.90;;;;;;6724709;88;20465;-75
2023/08/28 22:49:44;;;;;;;;;;;15.80;99.90;;;;;;6716569;88;20087;-75
2023/08/28 22:59:45;;;;;;;;;;;15.70;99.90;;;;;;6717714;88;20050;-76
2023/08/28 23:09:45;;;;;;;;;;;15.60;99.90;;;;;;6715452;88;20059;-76
2023/08/28 23:19:48;;;;;;;;;;;15.50;99.90;;;;;;6715100;88;20052;-76
2023/08/28 23:29:48;;;;;;;;;;;15.50;99.90;;;;;;6717677;88;20082;-77
2023/08/28 23:39:49;;;;;;;;;;;15.30;99.90;;;;;;6716859;88;20108;-76
2023/08/28 23:49:49;;;;;;;;;;;15.30;99.90;;;;;;6723171;88;20122;-76
2023/08/28 23:59:50;;;;;;;;;;;15.20;99.90;;;;;;6731466;88;20114;-76
